AFR754 FZAA-LFPG
Flight info
| Callsign | AFR754 |
|---|---|
| Flight time | N/A |
| Altitude | 36000 |
| Route | KSA DCT BZ UG856 LV UB600 EBULI DCT 03N005E DCT AMPAN DCT TAMOK DCT MONOS DCT PAMPA UR983 OG UR866 ONIMI/N0487F380 UR866 BULIS DCT MABAP UR722 SAK UG5 KORIS DCT SVL DCT HIJ DCT RUSEM DCT SOTUK DCT USOKO DCT TLD DCT SIE DCT EDIGO DCT DGO L176 LUSEM DCT LULUT DCT POI/N0496F300 DCT PEPAX UT182 KEPER |
| Aircraft | B77W/H-SDE1E2E3FGHIJ2J3J4J5M1RWXY/LB1D1 |
Departure
| Time | 2026-05-04 03:24 |
|---|---|
| Airport | Ndjili International Airport (FZAA) |
Arrival
| Time | N/A |
|---|---|
| Airport | Charles de Gaulle International Airport (LFPG) |
| Time | Latitude | Longitude | Altitude | Speed | Heading |
|---|---|---|---|---|---|
| 2026-05-04 02:46 | -4.38845 | 15.44545 | 1001 ft | 0 kts | 194° |
| 2026-05-04 03:12 | -4.38833 | 15.44548 | 1013 ft | 3 kts | 189° |
| 2026-05-04 03:13 | -4.38814 | 15.44550 | 1013 ft | 3 kts | 177° |
| 2026-05-04 03:13 | -4.38796 | 15.44548 | 1013 ft | 3 kts | 160° |
| 2026-05-04 03:13 | -4.38780 | 15.44540 | 1013 ft | 3 kts | 137° |
| 2026-05-04 03:13 | -4.38770 | 15.44528 | 1013 ft | 3 kts | 112° |
| 2026-05-04 03:14 | -4.38765 | 15.44511 | 1014 ft | 3 kts | 91° |
| 2026-05-04 03:14 | -4.38766 | 15.44493 | 1014 ft | 3 kts | 75° |
| 2026-05-04 03:14 | -4.38773 | 15.44475 | 1014 ft | 3 kts | 61° |
| 2026-05-04 03:14 | -4.38775 | 15.44470 | 1014 ft | 0 kts | 59° |
| 2026-05-04 03:17 | -4.38775 | 15.44471 | 1014 ft | 1 kts | 59° |
| 2026-05-04 03:18 | -4.38756 | 15.44499 | 1014 ft | 9 kts | 58° |
| 2026-05-04 03:18 | -4.38718 | 15.44534 | 1014 ft | 7 kts | 7° |
| 2026-05-04 03:18 | -4.38669 | 15.44514 | 1015 ft | 8 kts | 330° |
| 2026-05-04 03:18 | -4.38625 | 15.44485 | 1015 ft | 8 kts | 326° |
| 2026-05-04 03:19 | -4.38582 | 15.44438 | 1015 ft | 10 kts | 280° |
| 2026-05-04 03:19 | -4.38614 | 15.44367 | 1014 ft | 16 kts | 240° |
| 2026-05-04 03:19 | -4.38687 | 15.44256 | 1015 ft | 19 kts | 239° |
| 2026-05-04 03:19 | -4.38757 | 15.44143 | 1013 ft | 19 kts | 240° |
| 2026-05-04 03:20 | -4.38826 | 15.44029 | 1013 ft | 19 kts | 239° |
| 2026-05-04 03:20 | -4.38895 | 15.43914 | 1013 ft | 19 kts | 238° |
| 2026-05-04 03:20 | -4.38969 | 15.43793 | 1012 ft | 21 kts | 238° |
| 2026-05-04 03:20 | -4.39050 | 15.43676 | 1013 ft | 21 kts | 227° |
| 2026-05-04 03:21 | -4.39128 | 15.43555 | 1014 ft | 21 kts | 240° |
| 2026-05-04 03:21 | -4.39205 | 15.43428 | 1014 ft | 21 kts | 237° |
| 2026-05-04 03:21 | -4.39287 | 15.43304 | 1014 ft | 21 kts | 234° |
| 2026-05-04 03:21 | -4.39368 | 15.43179 | 1013 ft | 21 kts | 238° |
| 2026-05-04 03:22 | -4.39454 | 15.43057 | 1012 ft | 21 kts | 236° |
| 2026-05-04 03:22 | -4.39534 | 15.42931 | 1011 ft | 21 kts | 235° |
| 2026-05-04 03:22 | -4.39618 | 15.42847 | 1011 ft | 13 kts | 200° |
| 2026-05-04 03:22 | -4.39696 | 15.42793 | 1011 ft | 14 kts | 233° |
| 2026-05-04 03:23 | -4.39694 | 15.42726 | 1011 ft | 8 kts | 323° |
| 2026-05-04 03:23 | -4.39679 | 15.42723 | 1011 ft | 2 kts | 4° |
| 2026-05-04 03:23 | -4.39660 | 15.42749 | 1011 ft | 3 kts | 54° |
| 2026-05-04 03:23 | -4.39656 | 15.42755 | 1011 ft | 8 kts | 56° |
| 2026-05-04 03:24 | -4.39491 | 15.43010 | 1012 ft | 87 kts | 57° |
| 2026-05-04 03:24 | -4.39007 | 15.43762 | 1013 ft | 168 kts | 57° |
| 2026-05-04 03:24 | -4.38322 | 15.44833 | 1545 ft | 184 kts | 48° |
| 2026-05-04 03:24 | -4.37555 | 15.45858 | 2416 ft | 186 kts | 50° |
| 2026-05-04 03:25 | -4.36665 | 15.46827 | 2943 ft | 197 kts | 41° |
| 2026-05-04 03:25 | -4.35459 | 15.47565 | 3105 ft | 215 kts | 8° |
| 2026-05-04 03:25 | -4.33921 | 15.47361 | 3246 ft | 238 kts | 330° |
| 2026-05-04 03:25 | -4.32693 | 15.46161 | 3457 ft | 259 kts | 295° |
| 2026-05-04 03:26 | -4.32046 | 15.44461 | 3868 ft | 271 kts | 287° |
| 2026-05-04 03:26 | -4.31438 | 15.42607 | 4558 ft | 279 kts | 287° |
| 2026-05-04 03:26 | -4.30827 | 15.40773 | 5339 ft | 283 kts | 288° |
| 2026-05-04 03:26 | -4.30187 | 15.38890 | 6072 ft | 289 kts | 288° |
| 2026-05-04 03:27 | -4.29518 | 15.36965 | 6776 ft | 294 kts | 288° |
| 2026-05-04 03:27 | -4.28830 | 15.35018 | 7517 ft | 298 kts | 288° |
| 2026-05-04 03:27 | -4.28129 | 15.33058 | 8257 ft | 301 kts | 289° |
| 2026-05-04 03:27 | -4.27416 | 15.31068 | 8989 ft | 305 kts | 288° |
| 2026-05-04 03:28 | -4.26697 | 15.29059 | 9724 ft | 308 kts | 289° |
| 2026-05-04 03:28 | -4.25967 | 15.27026 | 10351 ft | 314 kts | 289° |
| 2026-05-04 03:28 | -4.25063 | 15.24961 | 10554 ft | 334 kts | 298° |
| 2026-05-04 03:28 | -4.23815 | 15.22915 | 10749 ft | 355 kts | 305° |
| 2026-05-04 03:29 | -4.22280 | 15.20877 | 10923 ft | 378 kts | 309° |
| 2026-05-04 03:29 | -4.20577 | 15.18795 | 11335 ft | 392 kts | 310° |
| 2026-05-04 03:29 | -4.18812 | 15.16680 | 11984 ft | 399 kts | 310° |
| 2026-05-04 03:29 | -4.17043 | 15.14559 | 12765 ft | 403 kts | 309° |
| 2026-05-04 03:30 | -4.15252 | 15.12393 | 13573 ft | 405 kts | 309° |
| 2026-05-04 03:30 | -4.13456 | 15.10204 | 14301 ft | 409 kts | 309° |
| 2026-05-04 03:30 | -4.11647 | 15.07988 | 14964 ft | 413 kts | 308° |
| 2026-05-04 03:30 | -4.09830 | 15.05749 | 15613 ft | 417 kts | 308° |
| 2026-05-04 03:31 | -4.07983 | 15.03472 | 16285 ft | 421 kts | 308° |
| 2026-05-04 03:31 | -4.06133 | 15.01190 | 16959 ft | 424 kts | 308° |
| 2026-05-04 03:31 | -4.04267 | 14.98885 | 17628 ft | 427 kts | 308° |
| 2026-05-04 03:31 | -4.02391 | 14.96565 | 18279 ft | 431 kts | 308° |
| 2026-05-04 03:32 | -4.00492 | 14.94219 | 18816 ft | 435 kts | 308° |
| 2026-05-04 03:32 | -3.98599 | 14.91885 | 19351 ft | 438 kts | 308° |
| 2026-05-04 03:32 | -3.96667 | 14.89503 | 19883 ft | 442 kts | 308° |
| 2026-05-04 03:32 | -3.94725 | 14.87106 | 20432 ft | 445 kts | 308° |
| 2026-05-04 03:33 | -3.92759 | 14.84678 | 20967 ft | 448 kts | 308° |
| 2026-05-04 03:33 | -3.90783 | 14.82238 | 21474 ft | 452 kts | 308° |
| 2026-05-04 03:33 | -3.88794 | 14.79781 | 21977 ft | 456 kts | 308° |
| 2026-05-04 03:33 | -3.86790 | 14.77307 | 22493 ft | 459 kts | 309° |
| 2026-05-04 03:34 | -3.84769 | 14.74817 | 22989 ft | 463 kts | 309° |
| 2026-05-04 03:34 | -3.82733 | 14.72307 | 23484 ft | 466 kts | 309° |
| 2026-05-04 03:34 | -3.80682 | 14.69775 | 23880 ft | 469 kts | 309° |
| 2026-05-04 03:34 | -3.78620 | 14.67230 | 24284 ft | 472 kts | 309° |
| 2026-05-04 03:35 | -3.76547 | 14.64671 | 24694 ft | 475 kts | 309° |
| 2026-05-04 03:35 | -3.74460 | 14.62097 | 25097 ft | 477 kts | 309° |
| 2026-05-04 03:35 | -3.72366 | 14.59513 | 25483 ft | 480 kts | 309° |
| 2026-05-04 03:35 | -3.70254 | 14.56909 | 25861 ft | 482 kts | 309° |
| 2026-05-04 03:36 | -3.68160 | 14.54328 | 26211 ft | 485 kts | 309° |
| 2026-05-04 03:36 | -3.66024 | 14.51695 | 26581 ft | 488 kts | 309° |
| 2026-05-04 03:36 | -3.63875 | 14.49046 | 26944 ft | 490 kts | 309° |
| 2026-05-04 03:36 | -3.61716 | 14.46385 | 27305 ft | 493 kts | 309° |
| 2026-05-04 03:37 | -3.59550 | 14.43717 | 27659 ft | 495 kts | 309° |
| 2026-05-04 03:37 | -3.57372 | 14.41033 | 27997 ft | 498 kts | 309° |
| 2026-05-04 03:37 | -3.55178 | 14.38329 | 28324 ft | 500 kts | 309° |
| 2026-05-04 03:37 | -3.52980 | 14.35621 | 28644 ft | 502 kts | 309° |
| 2026-05-04 03:38 | -3.50773 | 14.32903 | 28946 ft | 505 kts | 309° |
| 2026-05-04 03:38 | -3.48551 | 14.30166 | 29239 ft | 507 kts | 309° |
| 2026-05-04 03:38 | -3.46321 | 14.27423 | 29523 ft | 509 kts | 309° |
| 2026-05-04 03:38 | -3.44109 | 14.24702 | 29787 ft | 511 kts | 309° |
| 2026-05-04 03:39 | -3.41862 | 14.21939 | 30064 ft | 512 kts | 309° |
| 2026-05-04 03:39 | -3.39616 | 14.19173 | 30376 ft | 511 kts | 309° |
| 2026-05-04 03:39 | -3.37374 | 14.16415 | 30746 ft | 509 kts | 309° |
| 2026-05-04 03:39 | -3.35139 | 14.13667 | 31103 ft | 507 kts | 309° |
| 2026-05-04 03:40 | -3.32912 | 14.10925 | 31433 ft | 507 kts | 309° |
| 2026-05-04 03:40 | -3.30691 | 14.08190 | 31741 ft | 506 kts | 309° |
| 2026-05-04 03:40 | -3.28471 | 14.05456 | 32070 ft | 506 kts | 309° |
| 2026-05-04 03:40 | -3.26257 | 14.02728 | 32376 ft | 505 kts | 309° |
| 2026-05-04 03:41 | -3.24040 | 14.00003 | 32712 ft | 504 kts | 309° |
| 2026-05-04 03:41 | -3.21828 | 13.97284 | 33020 ft | 504 kts | 309° |
| 2026-05-04 03:41 | -3.19649 | 13.94603 | 33316 ft | 503 kts | 309° |
| 2026-05-04 03:41 | -3.17440 | 13.91882 | 33638 ft | 502 kts | 309° |
| 2026-05-04 03:42 | -3.15239 | 13.89172 | 33950 ft | 502 kts | 309° |
| 2026-05-04 03:42 | -3.13043 | 13.86465 | 34232 ft | 501 kts | 309° |
| 2026-05-04 03:42 | -3.10842 | 13.83753 | 34500 ft | 500 kts | 309° |
| 2026-05-04 03:42 | -3.09397 | 13.81970 | 34673 ft | 499 kts | 309° |
| 2026-05-04 03:43 | -3.07212 | 13.79276 | 34972 ft | 497 kts | 309° |
| 2026-05-04 03:43 | -3.05030 | 13.76597 | 35268 ft | 496 kts | 309° |
| 2026-05-04 03:43 | -3.02824 | 13.73894 | 35533 ft | 495 kts | 309° |
| 2026-05-04 03:43 | -3.00671 | 13.71257 | 35785 ft | 494 kts | 309° |
| 2026-05-04 03:44 | -2.98496 | 13.68588 | 35922 ft | 497 kts | 309° |
| 2026-05-04 03:44 | -2.94116 | 13.63207 | 35987 ft | 497 kts | 309° |
| 2026-05-04 03:45 | -2.89769 | 13.57863 | 35983 ft | 493 kts | 310° |
| 2026-05-04 03:45 | -2.85602 | 13.52739 | 35993 ft | 491 kts | 310° |
| 2026-05-04 03:46 | -2.81200 | 13.47325 | 35992 ft | 491 kts | 310° |
| 2026-05-04 03:46 | -2.76907 | 13.42048 | 35994 ft | 492 kts | 310° |
| 2026-05-04 03:47 | -2.72575 | 13.36727 | 35993 ft | 494 kts | 310° |
| 2026-05-04 03:47 | -2.68233 | 13.31393 | 35994 ft | 495 kts | 310° |
| 2026-05-04 03:48 | -2.63882 | 13.26046 | 35992 ft | 496 kts | 310° |
| 2026-05-04 03:48 | -2.59516 | 13.20681 | 35993 ft | 497 kts | 310° |
| 2026-05-04 03:49 | -2.55177 | 13.15351 | 35995 ft | 497 kts | 310° |
| 2026-05-04 03:49 | -2.50807 | 13.09987 | 35999 ft | 497 kts | 310° |
| 2026-05-04 03:50 | -2.46440 | 13.04623 | 35997 ft | 497 kts | 310° |
| 2026-05-04 03:50 | -2.42086 | 12.99235 | 35995 ft | 497 kts | 309° |
| 2026-05-04 03:51 | -2.37752 | 12.93846 | 35994 ft | 497 kts | 309° |
| 2026-05-04 03:51 | -2.33412 | 12.88455 | 36003 ft | 497 kts | 309° |
| 2026-05-04 03:52 | -2.29101 | 12.83109 | 35998 ft | 497 kts | 309° |
| 2026-05-04 03:52 | -2.24758 | 12.77729 | 35998 ft | 497 kts | 309° |
| 2026-05-04 03:53 | -2.20419 | 12.72350 | 36000 ft | 497 kts | 309° |
| 2026-05-04 03:53 | -2.16075 | 12.66964 | 36001 ft | 497 kts | 309° |
| 2026-05-04 03:54 | -2.11723 | 12.61569 | 36003 ft | 498 kts | 309° |
| 2026-05-04 03:54 | -2.07374 | 12.56179 | 36003 ft | 498 kts | 310° |
| 2026-05-04 03:55 | -2.03024 | 12.50787 | 35999 ft | 498 kts | 310° |
| 2026-05-04 03:55 | -1.98701 | 12.45430 | 36006 ft | 498 kts | 310° |
| 2026-05-04 03:56 | -1.94347 | 12.40036 | 36007 ft | 498 kts | 309° |
| 2026-05-04 03:56 | -1.89997 | 12.34646 | 36010 ft | 498 kts | 309° |
| 2026-05-04 03:57 | -1.85636 | 12.29244 | 36008 ft | 498 kts | 310° |
| 2026-05-04 03:57 | -1.81277 | 12.23846 | 36009 ft | 498 kts | 310° |
| 2026-05-04 03:58 | -1.74771 | 12.15789 | 36004 ft | 498 kts | 310° |
| 2026-05-04 03:58 | -1.70417 | 12.10396 | 36004 ft | 498 kts | 310° |
| 2026-05-04 03:59 | -1.66063 | 12.05010 | 36002 ft | 498 kts | 310° |
| 2026-05-04 03:59 | -1.61707 | 11.99628 | 36002 ft | 498 kts | 310° |
| 2026-05-04 04:00 | -1.57352 | 11.94246 | 36009 ft | 497 kts | 310° |
| 2026-05-04 04:00 | -1.52998 | 11.88867 | 36008 ft | 497 kts | 310° |
| 2026-05-04 04:01 | -1.48670 | 11.83518 | 36002 ft | 498 kts | 310° |
| 2026-05-04 04:01 | -1.44312 | 11.78138 | 36008 ft | 498 kts | 310° |
| 2026-05-04 04:02 | -1.39950 | 11.72748 | 35997 ft | 498 kts | 310° |
| 2026-05-04 04:02 | -1.35592 | 11.67355 | 36003 ft | 499 kts | 310° |
| 2026-05-04 04:03 | -1.31229 | 11.61953 | 36009 ft | 500 kts | 310° |
| 2026-05-04 04:03 | -1.26881 | 11.56569 | 36001 ft | 501 kts | 310° |
| 2026-05-04 04:04 | -1.22496 | 11.51139 | 36003 ft | 501 kts | 310° |
| 2026-05-04 04:04 | -1.18118 | 11.45719 | 35998 ft | 501 kts | 310° |
| 2026-05-04 04:05 | -1.13739 | 11.40297 | 35994 ft | 501 kts | 310° |
| 2026-05-04 04:05 | -1.09368 | 11.34886 | 35992 ft | 500 kts | 310° |
| 2026-05-04 04:06 | -1.04999 | 11.29477 | 35997 ft | 500 kts | 310° |
| 2026-05-04 04:06 | -1.00635 | 11.24075 | 35988 ft | 499 kts | 310° |
| 2026-05-04 04:07 | -0.96304 | 11.18715 | 35989 ft | 499 kts | 310° |
| 2026-05-04 04:07 | -0.91948 | 11.13323 | 35990 ft | 499 kts | 310° |
| 2026-05-04 04:08 | -0.87591 | 11.07929 | 35983 ft | 499 kts | 310° |
| 2026-05-04 04:08 | -0.83235 | 11.02538 | 35985 ft | 499 kts | 310° |
| 2026-05-04 04:09 | -0.78871 | 10.97136 | 35982 ft | 499 kts | 310° |
| 2026-05-04 04:09 | -0.74501 | 10.91726 | 35979 ft | 500 kts | 310° |
| 2026-05-04 04:10 | -0.70131 | 10.86319 | 35975 ft | 500 kts | 310° |
| 2026-05-04 04:10 | -0.65754 | 10.80906 | 35967 ft | 501 kts | 310° |
| 2026-05-04 04:11 | -0.61369 | 10.75482 | 35969 ft | 501 kts | 310° |
| 2026-05-04 04:11 | -0.57014 | 10.70093 | 35961 ft | 501 kts | 310° |
| 2026-05-04 04:12 | -0.52626 | 10.64663 | 35959 ft | 502 kts | 310° |
| 2026-05-04 04:12 | -0.48244 | 10.59240 | 35951 ft | 502 kts | 310° |
| 2026-05-04 04:13 | -0.43853 | 10.53807 | 35954 ft | 502 kts | 310° |
| 2026-05-04 04:13 | -0.39466 | 10.48378 | 35950 ft | 502 kts | 310° |
| 2026-05-04 04:14 | -0.35081 | 10.42952 | 35953 ft | 502 kts | 310° |
| 2026-05-04 04:14 | -0.30696 | 10.37524 | 35946 ft | 502 kts | 310° |
| 2026-05-04 04:15 | -0.26311 | 10.32102 | 35950 ft | 501 kts | 310° |
| 2026-05-04 04:15 | -0.21926 | 10.26682 | 35947 ft | 501 kts | 310° |
| 2026-05-04 04:16 | -0.17565 | 10.21292 | 35947 ft | 501 kts | 310° |
| 2026-05-04 04:16 | -0.13180 | 10.15869 | 35942 ft | 501 kts | 310° |
| 2026-05-04 04:17 | -0.08799 | 10.10450 | 35943 ft | 501 kts | 310° |
| 2026-05-04 04:17 | -0.04418 | 10.05032 | 35944 ft | 501 kts | 310° |
| 2026-05-04 04:18 | -0.00037 | 9.99614 | 35943 ft | 501 kts | 310° |
| 2026-05-04 04:18 | 0.04350 | 9.94189 | 35941 ft | 501 kts | 310° |
| 2026-05-04 04:19 | 0.08728 | 9.88776 | 35942 ft | 501 kts | 310° |
| 2026-05-04 04:19 | 0.13114 | 9.83351 | 35937 ft | 501 kts | 310° |
| 2026-05-04 04:20 | 0.17475 | 9.77957 | 35941 ft | 501 kts | 310° |
| 2026-05-04 04:20 | 0.21863 | 9.72531 | 35941 ft | 501 kts | 310° |
| 2026-05-04 04:21 | 0.26255 | 9.67100 | 35934 ft | 501 kts | 310° |
| 2026-05-04 04:21 | 0.30602 | 9.61723 | 35928 ft | 501 kts | 310° |
| 2026-05-04 04:22 | 0.35000 | 9.56284 | 35925 ft | 501 kts | 310° |
| 2026-05-04 04:22 | 0.39379 | 9.50867 | 35915 ft | 501 kts | 310° |
| 2026-05-04 04:23 | 0.43761 | 9.45446 | 35914 ft | 501 kts | 310° |
| 2026-05-04 04:23 | 0.48067 | 9.40027 | 35918 ft | 501 kts | 306° |
| 2026-05-04 04:24 | 0.51753 | 9.34113 | 35922 ft | 501 kts | 301° |
| 2026-05-04 04:24 | 0.55273 | 9.28091 | 35914 ft | 502 kts | 301° |
| 2026-05-04 04:25 | 0.58813 | 9.22081 | 35927 ft | 502 kts | 301° |
| 2026-05-04 04:25 | 0.62379 | 9.16087 | 35929 ft | 502 kts | 301° |
| 2026-05-04 04:26 | 0.65954 | 9.10093 | 35935 ft | 502 kts | 301° |
| 2026-05-04 04:26 | 0.69528 | 9.04099 | 35934 ft | 502 kts | 301° |
| 2026-05-04 04:27 | 0.73088 | 8.98131 | 35940 ft | 502 kts | 301° |
| 2026-05-04 04:27 | 0.76666 | 8.92130 | 35938 ft | 503 kts | 301° |
| 2026-05-04 04:28 | 0.80251 | 8.86119 | 35938 ft | 503 kts | 301° |
| 2026-05-04 04:28 | 0.83841 | 8.80097 | 35940 ft | 504 kts | 301° |
| 2026-05-04 04:29 | 0.87435 | 8.74068 | 35938 ft | 504 kts | 301° |
| 2026-05-04 04:29 | 0.91002 | 8.68085 | 35941 ft | 504 kts | 301° |
| 2026-05-04 04:30 | 0.94591 | 8.62064 | 35940 ft | 504 kts | 301° |
| 2026-05-04 04:30 | 0.98178 | 8.56046 | 35931 ft | 504 kts | 301° |
| 2026-05-04 04:31 | 1.01158 | 8.51047 | 35941 ft | 503 kts | 301° |
| 2026-05-04 04:31 | 1.04740 | 8.45037 | 35938 ft | 503 kts | 301° |
| 2026-05-04 04:32 | 1.08321 | 8.39029 | 35940 ft | 503 kts | 301° |
| 2026-05-04 04:32 | 1.12481 | 8.32039 | 35940 ft | 503 kts | 301° |
| 2026-05-04 04:33 | 1.15475 | 8.27004 | 35936 ft | 503 kts | 301° |
| 2026-05-04 04:33 | 1.19029 | 8.21029 | 35941 ft | 503 kts | 301° |
| 2026-05-04 04:34 | 1.22600 | 8.15026 | 35942 ft | 502 kts | 301° |
| 2026-05-04 04:34 | 1.26148 | 8.08999 | 35940 ft | 503 kts | 299° |
| 2026-05-04 04:35 | 1.28978 | 8.02608 | 35946 ft | 503 kts | 292° |
| 2026-05-04 04:35 | 1.31491 | 7.96089 | 35935 ft | 503 kts | 291° |
| 2026-05-04 04:36 | 1.34014 | 7.89614 | 35935 ft | 503 kts | 292° |
| 2026-05-04 04:36 | 1.36589 | 7.83109 | 35935 ft | 503 kts | 292° |
| 2026-05-04 04:37 | 1.41754 | 7.70106 | 35934 ft | 503 kts | 293° |
| 2026-05-04 04:38 | 1.44836 | 7.63839 | 35941 ft | 502 kts | 299° |
| 2026-05-04 04:38 | 1.48184 | 7.57698 | 35916 ft | 502 kts | 299° |
| 2026-05-04 04:39 | 1.51507 | 7.51562 | 35930 ft | 502 kts | 299° |
| 2026-05-04 04:39 | 1.54766 | 7.45449 | 35935 ft | 501 kts | 298° |
| 2026-05-04 04:40 | 1.58028 | 7.39296 | 35935 ft | 501 kts | 298° |
| 2026-05-04 04:40 | 1.61285 | 7.33151 | 35935 ft | 500 kts | 298° |
| 2026-05-04 04:41 | 1.64545 | 7.27008 | 35933 ft | 500 kts | 298° |
| 2026-05-04 04:41 | 1.67804 | 7.20867 | 35935 ft | 500 kts | 299° |
| 2026-05-04 04:42 | 1.71066 | 7.14720 | 35936 ft | 500 kts | 299° |
| 2026-05-04 04:42 | 1.74323 | 7.08581 | 35933 ft | 500 kts | 299° |
| 2026-05-04 04:43 | 1.77584 | 7.02436 | 35931 ft | 500 kts | 298° |
| 2026-05-04 04:43 | 1.80820 | 6.96334 | 35932 ft | 500 kts | 299° |
| 2026-05-04 04:44 | 1.84081 | 6.90187 | 35935 ft | 499 kts | 298° |
| 2026-05-04 04:44 | 1.87334 | 6.84053 | 35932 ft | 499 kts | 298° |
| 2026-05-04 04:45 | 1.90582 | 6.77926 | 35931 ft | 498 kts | 298° |
| 2026-05-04 04:47 | 2.02080 | 6.56647 | 35929 ft | 497 kts | 302° |
| 2026-05-04 04:47 | 2.05725 | 6.50784 | 35930 ft | 496 kts | 303° |
| 2026-05-04 04:48 | 2.09423 | 6.44954 | 35928 ft | 497 kts | 303° |
| 2026-05-04 04:49 | 2.18617 | 6.30308 | 35926 ft | 497 kts | 303° |
| 2026-05-04 04:49 | 2.22282 | 6.24442 | 35926 ft | 497 kts | 303° |
| 2026-05-04 04:50 | 2.25950 | 6.18576 | 35929 ft | 497 kts | 303° |
| 2026-05-04 04:50 | 2.29600 | 6.12738 | 35926 ft | 497 kts | 303° |
| 2026-05-04 04:51 | 2.33270 | 6.06869 | 35924 ft | 497 kts | 303° |
| 2026-05-04 04:51 | 2.36937 | 6.01002 | 35922 ft | 497 kts | 303° |
| 2026-05-04 04:52 | 2.40602 | 5.95138 | 35922 ft | 497 kts | 303° |
| 2026-05-04 04:52 | 2.44269 | 5.89269 | 35924 ft | 496 kts | 303° |
| 2026-05-04 04:53 | 2.47904 | 5.83453 | 35926 ft | 496 kts | 303° |
| 2026-05-04 04:53 | 2.51564 | 5.77595 | 35925 ft | 495 kts | 303° |
| 2026-05-04 04:54 | 2.55218 | 5.71747 | 35924 ft | 495 kts | 303° |
| 2026-05-04 04:54 | 2.58867 | 5.65907 | 35922 ft | 495 kts | 303° |
| 2026-05-04 04:55 | 2.62517 | 5.60062 | 35924 ft | 495 kts | 303° |
| 2026-05-04 04:55 | 2.66141 | 5.54257 | 35923 ft | 494 kts | 303° |
| 2026-05-04 04:56 | 2.69787 | 5.48420 | 35925 ft | 495 kts | 303° |
| 2026-05-04 04:56 | 2.73433 | 5.42580 | 35925 ft | 495 kts | 303° |
| 2026-05-04 04:57 | 2.77081 | 5.36735 | 35922 ft | 495 kts | 303° |
| 2026-05-04 04:57 | 2.80727 | 5.30893 | 35923 ft | 495 kts | 303° |
| 2026-05-04 04:58 | 2.84385 | 5.25033 | 35926 ft | 495 kts | 303° |
| 2026-05-04 04:58 | 2.88009 | 5.19224 | 35928 ft | 496 kts | 303° |
| 2026-05-04 04:59 | 2.91660 | 5.13370 | 35925 ft | 496 kts | 303° |
| 2026-05-04 04:59 | 2.95318 | 5.07507 | 35927 ft | 496 kts | 302° |
| 2026-05-04 05:00 | 2.98977 | 5.01645 | 35925 ft | 496 kts | 303° |
| 2026-05-04 05:01 | 3.05406 | 4.93560 | 35927 ft | 495 kts | 312° |
| 2026-05-04 05:01 | 3.09936 | 4.88375 | 35925 ft | 495 kts | 312° |
| 2026-05-04 05:02 | 3.14452 | 4.83162 | 35925 ft | 495 kts | 311° |
| 2026-05-04 05:02 | 3.18916 | 4.77966 | 35922 ft | 495 kts | 311° |
| 2026-05-04 05:03 | 3.23396 | 4.72739 | 35927 ft | 495 kts | 311° |
| 2026-05-04 05:04 | 3.32356 | 4.62285 | 35921 ft | 494 kts | 311° |
| 2026-05-04 05:04 | 3.36835 | 4.57062 | 35923 ft | 494 kts | 311° |
| 2026-05-04 05:06 | 3.54710 | 4.36200 | 35922 ft | 494 kts | 311° |
| 2026-05-04 05:07 | 3.59185 | 4.30976 | 35924 ft | 494 kts | 311° |
| 2026-05-04 05:07 | 3.63662 | 4.25750 | 35923 ft | 494 kts | 311° |
| 2026-05-04 05:09 | 3.83788 | 4.02248 | 35927 ft | 495 kts | 311° |
| 2026-05-04 05:10 | 3.88270 | 3.97010 | 35923 ft | 495 kts | 311° |
| 2026-05-04 05:10 | 3.92746 | 3.91778 | 35925 ft | 495 kts | 311° |
| 2026-05-04 05:11 | 3.97232 | 3.86535 | 35927 ft | 495 kts | 311° |
| 2026-05-04 05:11 | 4.01715 | 3.81297 | 35927 ft | 495 kts | 311° |
| 2026-05-04 05:12 | 4.06211 | 3.76067 | 35928 ft | 495 kts | 311° |
| 2026-05-04 05:12 | 4.10675 | 3.70881 | 35925 ft | 495 kts | 311° |
| 2026-05-04 05:13 | 4.15169 | 3.65655 | 35925 ft | 495 kts | 311° |
| 2026-05-04 05:13 | 4.19666 | 3.60423 | 35922 ft | 495 kts | 311° |
| 2026-05-04 05:14 | 4.24166 | 3.55185 | 35926 ft | 495 kts | 311° |
| 2026-05-04 05:14 | 4.28633 | 3.49985 | 35927 ft | 495 kts | 311° |
| 2026-05-04 05:15 | 4.33125 | 3.44756 | 35922 ft | 495 kts | 311° |
| 2026-05-04 05:15 | 4.37615 | 3.39529 | 35925 ft | 495 kts | 311° |
| 2026-05-04 05:16 | 4.42108 | 3.34294 | 35925 ft | 495 kts | 311° |
| 2026-05-04 05:16 | 4.46601 | 3.29060 | 35926 ft | 495 kts | 311° |
| 2026-05-04 05:17 | 4.51093 | 3.23826 | 35923 ft | 495 kts | 311° |
| 2026-05-04 05:17 | 4.55581 | 3.18596 | 35924 ft | 495 kts | 311° |
| 2026-05-04 05:18 | 4.60047 | 3.13391 | 35924 ft | 495 kts | 311° |
| 2026-05-04 05:18 | 4.63807 | 3.09007 | 35924 ft | 494 kts | 311° |
| 2026-05-04 05:19 | 4.68270 | 3.03804 | 35922 ft | 494 kts | 311° |
| 2026-05-04 05:19 | 4.72752 | 2.98576 | 35923 ft | 494 kts | 311° |
| 2026-05-04 05:20 | 4.77233 | 2.93348 | 35923 ft | 494 kts | 311° |
| 2026-05-04 05:20 | 4.81720 | 2.88114 | 35923 ft | 494 kts | 311° |
| 2026-05-04 05:21 | 4.86198 | 2.82887 | 35927 ft | 494 kts | 311° |
| 2026-05-04 05:21 | 4.91029 | 2.78014 | 35927 ft | 493 kts | 321° |
| 2026-05-04 05:22 | 4.96539 | 2.73923 | 35927 ft | 492 kts | 324° |
| 2026-05-04 05:22 | 5.02108 | 2.69912 | 35923 ft | 492 kts | 324° |
| 2026-05-04 05:23 | 5.07650 | 2.65880 | 35926 ft | 492 kts | 323° |
| 2026-05-04 05:23 | 5.13192 | 2.61815 | 35926 ft | 492 kts | 323° |
| 2026-05-04 05:24 | 5.18688 | 2.57774 | 35922 ft | 492 kts | 323° |
| 2026-05-04 05:24 | 5.24210 | 2.53714 | 35921 ft | 492 kts | 323° |
| 2026-05-04 05:25 | 5.29743 | 2.49646 | 35923 ft | 492 kts | 323° |
| 2026-05-04 05:25 | 5.35262 | 2.45588 | 35923 ft | 492 kts | 323° |
| 2026-05-04 05:26 | 5.40748 | 2.41555 | 35925 ft | 492 kts | 323° |
| 2026-05-04 05:26 | 5.46268 | 2.37495 | 35923 ft | 492 kts | 323° |
| 2026-05-04 05:28 | 5.68374 | 2.21227 | 35927 ft | 492 kts | 323° |
| 2026-05-04 05:29 | 5.73864 | 2.17184 | 35924 ft | 492 kts | 323° |
| 2026-05-04 05:29 | 5.79392 | 2.13113 | 35923 ft | 492 kts | 323° |
| 2026-05-04 05:31 | 6.01452 | 1.96854 | 35927 ft | 491 kts | 323° |
| 2026-05-04 05:32 | 6.06964 | 1.92789 | 35929 ft | 491 kts | 323° |
| 2026-05-04 05:33 | 6.15237 | 1.86686 | 35928 ft | 490 kts | 323° |
| 2026-05-04 05:33 | 6.20732 | 1.82631 | 35929 ft | 490 kts | 323° |
| 2026-05-04 05:34 | 6.26229 | 1.78573 | 35934 ft | 489 kts | 322° |
| 2026-05-04 05:34 | 6.31750 | 1.74639 | 35935 ft | 489 kts | 324° |
| 2026-05-04 05:35 | 6.37365 | 1.70773 | 35936 ft | 489 kts | 324° |
| 2026-05-04 05:35 | 6.42979 | 1.66905 | 35941 ft | 488 kts | 324° |
| 2026-05-04 05:36 | 6.48572 | 1.63024 | 35940 ft | 488 kts | 324° |
| 2026-05-04 05:36 | 6.54160 | 1.59136 | 35943 ft | 488 kts | 324° |
| 2026-05-04 05:37 | 6.59745 | 1.55247 | 35947 ft | 488 kts | 324° |
| 2026-05-04 05:37 | 6.65327 | 1.51360 | 35947 ft | 488 kts | 324° |
| 2026-05-04 05:38 | 6.73701 | 1.45528 | 35946 ft | 488 kts | 324° |
| 2026-05-04 05:38 | 6.79254 | 1.41660 | 35947 ft | 488 kts | 324° |
| 2026-05-04 05:39 | 6.87635 | 1.35819 | 35954 ft | 489 kts | 324° |
| 2026-05-04 05:40 | 6.96028 | 1.29967 | 35950 ft | 489 kts | 324° |
| 2026-05-04 05:40 | 7.01622 | 1.26065 | 35950 ft | 489 kts | 324° |
| 2026-05-04 05:41 | 7.07215 | 1.22164 | 35954 ft | 489 kts | 324° |
| 2026-05-04 05:41 | 7.12802 | 1.18265 | 35956 ft | 489 kts | 324° |
| 2026-05-04 05:42 | 7.18395 | 1.14361 | 35958 ft | 488 kts | 324° |
| 2026-05-04 05:42 | 7.23944 | 1.10486 | 35960 ft | 488 kts | 324° |
| 2026-05-04 05:43 | 7.29526 | 1.06587 | 35966 ft | 488 kts | 324° |
| 2026-05-04 05:45 | 7.51810 | 0.91007 | 35972 ft | 487 kts | 324° |
| 2026-05-04 05:47 | 7.75483 | 0.77719 | 35973 ft | 487 kts | 330° |
| 2026-05-04 05:47 | 7.81480 | 0.74517 | 35964 ft | 487 kts | 330° |
| 2026-05-04 05:48 | 7.87425 | 0.71335 | 35979 ft | 487 kts | 330° |
| 2026-05-04 05:48 | 7.93451 | 0.68108 | 35969 ft | 487 kts | 330° |
| 2026-05-04 05:49 | 7.99400 | 0.64924 | 35966 ft | 487 kts | 329° |
| 2026-05-04 05:49 | 8.05366 | 0.61695 | 35964 ft | 487 kts | 329° |
| 2026-05-04 05:51 | 8.29326 | 0.48876 | 35961 ft | 486 kts | 330° |
| 2026-05-04 05:52 | 8.35303 | 0.45669 | 35953 ft | 486 kts | 330° |
| 2026-05-04 05:52 | 8.41244 | 0.42482 | 35948 ft | 485 kts | 330° |
| 2026-05-04 05:54 | 8.65034 | 0.29713 | 35943 ft | 484 kts | 330° |
| 2026-05-04 05:55 | 8.70975 | 0.26518 | 35945 ft | 484 kts | 330° |
| 2026-05-04 05:55 | 8.76919 | 0.23323 | 35939 ft | 484 kts | 330° |
| 2026-05-04 05:56 | 8.82871 | 0.20123 | 35942 ft | 484 kts | 330° |
| 2026-05-04 05:56 | 8.88821 | 0.16923 | 35939 ft | 484 kts | 330° |
| 2026-05-04 05:57 | 8.94736 | 0.13741 | 35941 ft | 484 kts | 330° |
| 2026-05-04 05:57 | 9.00683 | 0.10538 | 35939 ft | 484 kts | 330° |
| 2026-05-04 05:58 | 9.06635 | 0.07331 | 35937 ft | 484 kts | 330° |
| 2026-05-04 05:58 | 9.12585 | 0.04128 | 35937 ft | 484 kts | 330° |
| 2026-05-04 05:59 | 9.18541 | 0.00926 | 35943 ft | 484 kts | 329° |
| 2026-05-04 05:59 | 9.24495 | -0.02248 | 35939 ft | 484 kts | 331° |
| 2026-05-04 06:00 | 9.30570 | -0.05127 | 35937 ft | 485 kts | 333° |
| 2026-05-04 06:00 | 9.36706 | -0.07960 | 35934 ft | 484 kts | 333° |
| 2026-05-04 06:01 | 9.42824 | -0.10840 | 35942 ft | 484 kts | 332° |
| 2026-05-04 06:03 | 9.67188 | -0.22434 | 35943 ft | 484 kts | 332° |
| 2026-05-04 06:05 | 9.93623 | -0.35028 | 35923 ft | 484 kts | 332° |
| 2026-05-04 06:06 | 9.99720 | -0.37936 | 35922 ft | 484 kts | 332° |
| 2026-05-04 06:06 | 10.05811 | -0.40834 | 35918 ft | 483 kts | 332° |
| 2026-05-04 06:07 | 10.11860 | -0.43720 | 35921 ft | 483 kts | 332° |
| 2026-05-04 06:07 | 10.17861 | -0.46783 | 35924 ft | 482 kts | 330° |
| 2026-05-04 06:08 | 10.23819 | -0.49926 | 35919 ft | 482 kts | 330° |
| 2026-05-04 06:08 | 10.29785 | -0.53049 | 35920 ft | 482 kts | 330° |
| 2026-05-04 06:09 | 10.35759 | -0.56150 | 35915 ft | 482 kts | 330° |
| 2026-05-04 06:11 | 10.59679 | -0.68553 | 35912 ft | 484 kts | 330° |
| 2026-05-04 06:13 | 10.83680 | -0.81020 | 35910 ft | 484 kts | 330° |
| 2026-05-04 06:14 | 11.04750 | -0.91818 | 35906 ft | 486 kts | 333° |
| 2026-05-04 06:15 | 11.10942 | -0.94600 | 35911 ft | 486 kts | 334° |
| 2026-05-04 06:15 | 11.17132 | -0.97369 | 35911 ft | 486 kts | 333° |
| 2026-05-04 06:16 | 11.23314 | -1.00176 | 35908 ft | 486 kts | 333° |
| 2026-05-04 06:16 | 11.29501 | -1.03007 | 35909 ft | 486 kts | 333° |
| 2026-05-04 06:17 | 11.35632 | -1.05817 | 35923 ft | 486 kts | 333° |
| 2026-05-04 06:17 | 11.41803 | -1.08644 | 35922 ft | 486 kts | 333° |
| 2026-05-04 06:18 | 11.47973 | -1.11472 | 35919 ft | 486 kts | 333° |
| 2026-05-04 06:20 | 11.72612 | -1.22777 | 35917 ft | 485 kts | 333° |
| 2026-05-04 06:21 | 11.87944 | -1.29822 | 35916 ft | 484 kts | 333° |
| 2026-05-04 06:22 | 11.94098 | -1.32652 | 35914 ft | 484 kts | 332° |
| 2026-05-04 06:25 | 12.37045 | -1.52429 | 35938 ft | 484 kts | 333° |
| 2026-05-04 06:26 | 12.43201 | -1.55224 | 35943 ft | 484 kts | 333° |
| 2026-05-04 06:26 | 12.49360 | -1.58009 | 35932 ft | 484 kts | 333° |
| 2026-05-04 06:27 | 12.64732 | -1.64975 | 35919 ft | 482 kts | 332° |
| 2026-05-04 06:28 | 12.70878 | -1.67765 | 35911 ft | 482 kts | 332° |
| 2026-05-04 06:28 | 12.77008 | -1.70549 | 35912 ft | 482 kts | 332° |
| 2026-05-04 06:29 | 12.83113 | -1.73322 | 35918 ft | 482 kts | 332° |
| 2026-05-04 06:29 | 12.89257 | -1.76114 | 35916 ft | 482 kts | 332° |
| 2026-05-04 06:30 | 12.95404 | -1.78909 | 35918 ft | 483 kts | 332° |
| 2026-05-04 06:30 | 13.01556 | -1.81707 | 35926 ft | 483 kts | 332° |
| 2026-05-04 06:31 | 13.07697 | -1.84500 | 35923 ft | 483 kts | 332° |
| 2026-05-04 06:31 | 13.13811 | -1.87283 | 35926 ft | 483 kts | 332° |
| 2026-05-04 06:33 | 13.38453 | -1.98529 | 35925 ft | 485 kts | 332° |
| 2026-05-04 06:34 | 13.44623 | -2.01344 | 35922 ft | 485 kts | 332° |
| 2026-05-04 06:34 | 13.50783 | -2.04156 | 35926 ft | 485 kts | 332° |
| 2026-05-04 06:36 | 13.75432 | -2.15426 | 35913 ft | 484 kts | 332° |
| 2026-05-04 06:37 | 13.81556 | -2.18230 | 35916 ft | 484 kts | 332° |
| 2026-05-04 06:37 | 13.87711 | -2.21050 | 35908 ft | 484 kts | 332° |
| 2026-05-04 06:38 | 13.93874 | -2.23874 | 35910 ft | 484 kts | 332° |
| 2026-05-04 06:40 | 14.18480 | -2.35168 | 35912 ft | 484 kts | 332° |
| 2026-05-04 06:40 | 14.24636 | -2.37996 | 35904 ft | 484 kts | 332° |
| 2026-05-04 06:41 | 14.30796 | -2.40827 | 35904 ft | 484 kts | 332° |
| 2026-05-04 06:41 | 14.36950 | -2.43656 | 35903 ft | 484 kts | 332° |
| 2026-05-04 06:42 | 14.43103 | -2.46493 | 35887 ft | 484 kts | 332° |